ěÝzenÝ letovÚho provozu ╚eskÚ republiky
Letiste: LKPJ Aktualizace: 25.05.2024 07:01:05  UTC
 METAR LKPJ 25.05. 07:00 ...
METAR LKPJ 250700Z AUTO VRB02KT 9999 FEW013/// SCT082/// 18/14 Q1019=